sensor_id;sensor_type;location;lat;lon;timestamp;pressure;altitude;pressure_sealevel;temperature;humidity
40948;BME280;49382;-25.924;28.194;2023-07-09T00:01:27;85165.55;;;12.75;29.81
40948;BME280;49382;-25.924;28.194;2023-07-09T00:03:53;85164.24;;;13.23;29.20
40948;BME280;49382;-25.924;28.194;2023-07-09T00:06:19;85161.32;;;12.96;28.51
40948;BME280;49382;-25.924;28.194;2023-07-09T00:08:45;85160.31;;;13.04;28.17
40948;BME280;49382;-25.924;28.194;2023-07-09T00:11:09;85160.40;;;13.23;28.22
40948;BME280;49382;-25.924;28.194;2023-07-09T00:13:34;85161.66;;;13.41;27.95
40948;BME280;49382;-25.924;28.194;2023-07-09T00:16:03;85159.67;;;13.10;28.16
40948;BME280;49382;-25.924;28.194;2023-07-09T00:18:25;85157.23;;;13.77;27.82
40948;BME280;49382;-25.924;28.194;2023-07-09T00:20:50;85156.02;;;13.92;27.38
40948;BME280;49382;-25.924;28.194;2023-07-09T00:23:15;85151.32;;;14.05;27.56
40948;BME280;49382;-25.924;28.194;2023-07-09T00:25:41;85148.47;;;13.99;27.37
40948;BME280;49382;-25.924;28.194;2023-07-09T00:28:07;85147.57;;;13.82;28.13
40948;BME280;49382;-25.924;28.194;2023-07-09T00:30:31;85145.09;;;13.66;28.63
40948;BME280;49382;-25.924;28.194;2023-07-09T00:32:57;85145.39;;;13.50;28.40
40948;BME280;49382;-25.924;28.194;2023-07-09T00:35:23;85143.46;;;13.54;28.53
40948;BME280;49382;-25.924;28.194;2023-07-09T00:37:48;85143.61;;;13.75;27.96
40948;BME280;49382;-25.924;28.194;2023-07-09T00:40:19;85142.86;;;13.54;28.07
40948;BME280;49382;-25.924;28.194;2023-07-09T00:42:44;85145.58;;;12.70;28.51
40948;BME280;49382;-25.924;28.194;2023-07-09T00:45:15;85146.27;;;13.33;28.38
40948;BME280;49382;-25.924;28.194;2023-07-09T00:47:40;85145.71;;;13.34;28.69
40948;BME280;49382;-25.924;28.194;2023-07-09T00:50:08;85145.86;;;13.42;28.60
40948;BME280;49382;-25.924;28.194;2023-07-09T00:52:25;85147.59;;;13.69;28.20
40948;BME280;49382;-25.924;28.194;2023-07-09T00:54:47;85145.45;;;13.39;28.32
40948;BME280;49382;-25.924;28.194;2023-07-09T00:57:14;85143.44;;;13.47;28.42
40948;BME280;49382;-25.924;28.194;2023-07-09T00:59:38;85146.18;;;13.61;28.59
40948;BME280;49382;-25.924;28.194;2023-07-09T01:02:04;85140.74;;;13.52;28.44
40948;BME280;49382;-25.924;28.194;2023-07-09T01:04:29;85140.74;;;13.24;29.19
40948;BME280;49382;-25.924;28.194;2023-07-09T01:06:56;85139.30;;;12.78;29.45
40948;BME280;49382;-25.924;28.194;2023-07-09T01:09:20;85135.05;;;12.46;30.01
40948;BME280;49382;-25.924;28.194;2023-07-09T01:11:45;85132.83;;;12.20;29.99
40948;BME280;49382;-25.924;28.194;2023-07-09T01:14:13;85136.67;;;12.95;29.60
40948;BME280;49382;-25.924;28.194;2023-07-09T01:16:38;85127.37;;;12.13;30.37
40948;BME280;49382;-25.924;28.194;2023-07-09T01:19:02;85128.05;;;12.12;30.10
40948;BME280;49382;-25.924;28.194;2023-07-09T01:21:28;85124.28;;;12.22;29.58
40948;BME280;49382;-25.924;28.194;2023-07-09T01:23:53;85128.36;;;11.24;30.99
40948;BME280;49382;-25.924;28.194;2023-07-09T01:26:21;85119.27;;;12.25;30.29
40948;BME280;49382;-25.924;28.194;2023-07-09T01:28:44;85128.39;;;11.59;31.27
40948;BME280;49382;-25.924;28.194;2023-07-09T01:31:10;85120.78;;;12.50;30.11
40948;BME280;49382;-25.924;28.194;2023-07-09T01:33:35;85120.16;;;12.97;30.18
40948;BME280;49382;-25.924;28.194;2023-07-09T01:36:01;85112.80;;;12.05;30.88
40948;BME280;49382;-25.924;28.194;2023-07-09T01:38:26;85111.39;;;11.55;30.97
40948;BME280;49382;-25.924;28.194;2023-07-09T01:40:51;85107.25;;;11.82;30.91
40948;BME280;49382;-25.924;28.194;2023-07-09T01:43:17;85105.24;;;11.86;31.15
40948;BME280;49382;-25.924;28.194;2023-07-09T01:45:42;85113.01;;;11.43;31.97
40948;BME280;49382;-25.924;28.194;2023-07-09T01:48:08;85108.64;;;11.41;31.56
40948;BME280;49382;-25.924;28.194;2023-07-09T01:50:33;85108.26;;;11.49;31.83
40948;BME280;49382;-25.924;28.194;2023-07-09T01:52:59;85100.58;;;12.09;30.76
40948;BME280;49382;-25.924;28.194;2023-07-09T01:55:24;85124.13;;;11.67;31.91
40948;BME280;49382;-25.924;28.194;2023-07-09T01:57:50;85177.58;;;10.72;32.12
40948;BME280;49382;-25.924;28.194;2023-07-09T02:00:16;85132.15;;;12.05;29.69
40948;BME280;49382;-25.924;28.194;2023-07-09T02:02:41;85151.07;;;12.65;28.59
40948;BME280;49382;-25.924;28.194;2023-07-09T02:05:06;85153.17;;;12.92;28.41
40948;BME280;49382;-25.924;28.194;2023-07-09T02:07:31;85160.19;;;12.96;27.19
40948;BME280;49382;-25.924;28.194;2023-07-09T02:09:57;85146.87;;;12.75;27.22
40948;BME280;49382;-25.924;28.194;2023-07-09T02:12:22;85147.49;;;13.73;26.10
40948;BME280;49382;-25.924;28.194;2023-07-09T02:14:48;85148.23;;;13.51;26.70
40948;BME280;49382;-25.924;28.194;2023-07-09T02:17:14;85145.84;;;13.19;26.73
40948;BME280;49382;-25.924;28.194;2023-07-09T02:19:38;85148.16;;;13.18;26.39
40948;BME280;49382;-25.924;28.194;2023-07-09T02:22:04;85143.73;;;13.47;25.79
40948;BME280;49382;-25.924;28.194;2023-07-09T02:24:30;85143.77;;;13.41;26.11
40948;BME280;49382;-25.924;28.194;2023-07-09T02:26:55;85145.88;;;13.98;25.82
40948;BME280;49382;-25.924;28.194;2023-07-09T02:29:20;85139.45;;;14.10;25.43
40948;BME280;49382;-25.924;28.194;2023-07-09T02:31:47;85139.80;;;13.43;26.11
40948;BME280;49382;-25.924;28.194;2023-07-09T02:34:12;85140.94;;;14.15;25.35
40948;BME280;49382;-25.924;28.194;2023-07-09T02:36:37;85139.29;;;13.80;25.27
40948;BME280;49382;-25.924;28.194;2023-07-09T02:39:03;85144.34;;;13.91;26.61
40948;BME280;49382;-25.924;28.194;2023-07-09T02:41:28;85144.42;;;14.04;26.08
40948;BME280;49382;-25.924;28.194;2023-07-09T02:43:54;85144.09;;;12.97;27.15
40948;BME280;49382;-25.924;28.194;2023-07-09T02:46:19;85142.51;;;13.18;26.69
40948;BME280;49382;-25.924;28.194;2023-07-09T02:48:45;85140.06;;;13.44;27.53
40948;BME280;49382;-25.924;28.194;2023-07-09T02:51:10;85131.85;;;13.17;27.36
40948;BME280;49382;-25.924;28.194;2023-07-09T02:53:36;85133.87;;;13.22;27.24
40948;BME280;49382;-25.924;28.194;2023-07-09T02:56:01;85138.48;;;13.04;27.41
40948;BME280;49382;-25.924;28.194;2023-07-09T02:58:26;85139.22;;;13.13;27.47
40948;BME280;49382;-25.924;28.194;2023-07-09T03:00:51;85139.66;;;13.13;27.47
40948;BME280;49382;-25.924;28.194;2023-07-09T03:03:17;85137.82;;;13.41;27.22
40948;BME280;49382;-25.924;28.194;2023-07-09T03:05:44;85142.84;;;12.87;27.78
40948;BME280;49382;-25.924;28.194;2023-07-09T03:08:08;85149.07;;;11.87;29.31
40948;BME280;49382;-25.924;28.194;2023-07-09T03:10:33;85141.35;;;12.78;28.21
40948;BME280;49382;-25.924;28.194;2023-07-09T03:12:59;85140.75;;;12.84;28.25
40948;BME280;49382;-25.924;28.194;2023-07-09T03:15:24;85146.54;;;12.57;28.03
40948;BME280;49382;-25.924;28.194;2023-07-09T03:17:50;85150.28;;;12.26;28.82
40948;BME280;49382;-25.924;28.194;2023-07-09T03:20:15;85149.33;;;12.62;28.33
40948;BME280;49382;-25.924;28.194;2023-07-09T03:22:41;85149.59;;;12.08;29.06
40948;BME280;49382;-25.924;28.194;2023-07-09T03:25:07;85150.02;;;11.27;29.49
40948;BME280;49382;-25.924;28.194;2023-07-09T03:27:31;85150.75;;;10.49;30.13
40948;BME280;49382;-25.924;28.194;2023-07-09T03:29:57;85151.70;;;11.23;29.78
40948;BME280;49382;-25.924;28.194;2023-07-09T03:32:22;85154.31;;;11.08;30.27
40948;BME280;49382;-25.924;28.194;2023-07-09T03:34:48;85158.38;;;11.82;29.62
40948;BME280;49382;-25.924;28.194;2023-07-09T03:37:14;85151.43;;;12.41;28.46
40948;BME280;49382;-25.924;28.194;2023-07-09T03:39:39;85153.66;;;12.51;28.16
40948;BME280;49382;-25.924;28.194;2023-07-09T03:42:05;85157.86;;;12.35;28.34
40948;BME280;49382;-25.924;28.194;2023-07-09T03:44:30;85159.67;;;12.62;27.89
40948;BME280;49382;-25.924;28.194;2023-07-09T03:46:55;85165.75;;;12.91;27.81
40948;BME280;49382;-25.924;28.194;2023-07-09T03:49:21;85169.26;;;12.85;27.62
40948;BME280;49382;-25.924;28.194;2023-07-09T03:51:46;85172.79;;;12.64;27.86
40948;BME280;49382;-25.924;28.194;2023-07-09T03:54:12;85174.23;;;12.96;27.77
40948;BME280;49382;-25.924;28.194;2023-07-09T03:56:38;85172.38;;;12.41;27.94
40948;BME280;49382;-25.924;28.194;2023-07-09T03:59:03;85171.77;;;12.89;28.75
40948;BME280;49382;-25.924;28.194;2023-07-09T04:01:29;85177.09;;;13.23;27.38
40948;BME280;49382;-25.924;28.194;2023-07-09T04:03:54;85176.61;;;12.78;27.48
40948;BME280;49382;-25.924;28.194;2023-07-09T04:06:20;85177.63;;;13.14;27.10
40948;BME280;49382;-25.924;28.194;2023-07-09T04:08:45;85173.22;;;12.78;27.74
40948;BME280;49382;-25.924;28.194;2023-07-09T04:11:10;85185.27;;;11.77;28.67
40948;BME280;49382;-25.924;28.194;2023-07-09T04:13:36;85183.69;;;11.89;28.98
40948;BME280;49382;-25.924;28.194;2023-07-09T04:16:01;85178.68;;;12.37;28.45
40948;BME280;49382;-25.924;28.194;2023-07-09T04:18:26;85184.21;;;12.17;28.81
40948;BME280;49382;-25.924;28.194;2023-07-09T04:20:53;85184.02;;;11.92;28.67
40948;BME280;49382;-25.924;28.194;2023-07-09T04:23:18;85185.46;;;11.79;29.04
40948;BME280;49382;-25.924;28.194;2023-07-09T04:25:43;85185.94;;;11.51;29.52
40948;BME280;49382;-25.924;28.194;2023-07-09T04:28:09;85189.37;;;10.99;30.57
40948;BME280;49382;-25.924;28.194;2023-07-09T04:30:34;85192.61;;;10.69;30.48
40948;BME280;49382;-25.924;28.194;2023-07-09T04:33:00;85191.56;;;10.92;30.79
40948;BME280;49382;-25.924;28.194;2023-07-09T04:35:25;85190.97;;;11.37;30.60
40948;BME280;49382;-25.924;28.194;2023-07-09T04:37:50;85192.46;;;11.43;29.95
40948;BME280;49382;-25.924;28.194;2023-07-09T04:40:17;85195.15;;;11.90;29.34
40948;BME280;49382;-25.924;28.194;2023-07-09T04:42:41;85197.70;;;11.89;29.04
40948;BME280;49382;-25.924;28.194;2023-07-09T04:45:08;85196.20;;;12.92;27.75
40948;BME280;49382;-25.924;28.194;2023-07-09T04:47:31;85194.99;;;12.66;28.08
40948;BME280;49382;-25.924;28.194;2023-07-09T04:49:56;85197.39;;;11.75;28.96
40948;BME280;49382;-25.924;28.194;2023-07-09T04:52:22;85201.61;;;12.59;27.52
40948;BME280;49382;-25.924;28.194;2023-07-09T04:54:47;85196.53;;;12.47;27.29
40948;BME280;49382;-25.924;28.194;2023-07-09T04:57:13;85197.22;;;12.43;27.26
40948;BME280;49382;-25.924;28.194;2023-07-09T04:59:38;85193.40;;;12.34;27.60
40948;BME280;49382;-25.924;28.194;2023-07-09T05:02:04;85201.14;;;12.51;27.03
40948;BME280;49382;-25.924;28.194;2023-07-09T05:04:28;85203.33;;;11.91;27.89
40948;BME280;49382;-25.924;28.194;2023-07-09T05:06:54;85203.19;;;12.69;27.44
40948;BME280;49382;-25.924;28.194;2023-07-09T05:09:19;85207.71;;;11.82;28.38
40948;BME280;49382;-25.924;28.194;2023-07-09T05:11:45;85196.67;;;12.18;28.16
40948;BME280;49382;-25.924;28.194;2023-07-09T05:14:11;85195.57;;;11.77;28.87
40948;BME280;49382;-25.924;28.194;2023-07-09T05:16:36;85202.48;;;12.22;28.48
40948;BME280;49382;-25.924;28.194;2023-07-09T05:19:01;85200.45;;;12.61;28.01
40948;BME280;49382;-25.924;28.194;2023-07-09T05:21:27;85198.19;;;12.87;27.71
40948;BME280;49382;-25.924;28.194;2023-07-09T05:23:52;85201.88;;;13.20;26.97
40948;BME280;49382;-25.924;28.194;2023-07-09T05:26:18;85200.31;;;13.22;27.42
40948;BME280;49382;-25.924;28.194;2023-07-09T05:28:44;85200.96;;;13.61;27.08
40948;BME280;49382;-25.924;28.194;2023-07-09T05:31:09;85204.35;;;12.83;28.16
40948;BME280;49382;-25.924;28.194;2023-07-09T05:33:34;85208.04;;;12.77;28.47
40948;BME280;49382;-25.924;28.194;2023-07-09T05:36:00;85211.27;;;13.55;27.79
40948;BME280;49382;-25.924;28.194;2023-07-09T05:38:25;85205.09;;;13.97;27.98
40948;BME280;49382;-25.924;28.194;2023-07-09T05:40:59;85211.18;;;13.46;29.19
40948;BME280;49382;-25.924;28.194;2023-07-09T05:43:16;85215.43;;;13.17;27.71
40948;BME280;49382;-25.924;28.194;2023-07-09T05:45:41;85210.75;;;13.62;27.97
40948;BME280;49382;-25.924;28.194;2023-07-09T05:48:07;85201.69;;;14.17;27.56
40948;BME280;49382;-25.924;28.194;2023-07-09T05:50:34;85198.46;;;13.97;28.78
40948;BME280;49382;-25.924;28.194;2023-07-09T05:52:58;85204.78;;;13.97;28.57
40948;BME280;49382;-25.924;28.194;2023-07-09T05:55:23;85206.38;;;13.67;28.85
40948;BME280;49382;-25.924;28.194;2023-07-09T05:57:49;85206.70;;;14.84;28.40
40948;BME280;49382;-25.924;28.194;2023-07-09T06:00:15;85203.66;;;14.73;27.31
40948;BME280;49382;-25.924;28.194;2023-07-09T06:02:40;85200.20;;;14.67;27.96
40948;BME280;49382;-25.924;28.194;2023-07-09T06:05:05;85205.55;;;14.83;28.52
40948;BME280;49382;-25.924;28.194;2023-07-09T06:07:30;85205.35;;;15.08;27.37
40948;BME280;49382;-25.924;28.194;2023-07-09T06:09:56;85201.66;;;15.10;27.48
40948;BME280;49382;-25.924;28.194;2023-07-09T06:12:21;85206.47;;;15.19;27.06
40948;BME280;49382;-25.924;28.194;2023-07-09T06:14:47;85209.06;;;15.70;26.21
40948;BME280;49382;-25.924;28.194;2023-07-09T06:17:12;85214.41;;;15.91;26.05
40948;BME280;49382;-25.924;28.194;2023-07-09T06:19:37;85212.60;;;15.93;26.34
40948;BME280;49382;-25.924;28.194;2023-07-09T06:22:03;85220.52;;;16.02;26.03
40948;BME280;49382;-25.924;28.194;2023-07-09T06:24:28;85216.14;;;15.46;26.33
40948;BME280;49382;-25.924;28.194;2023-07-09T06:26:54;85219.41;;;16.22;25.91
40948;BME280;49382;-25.924;28.194;2023-07-09T06:29:20;85225.43;;;16.46;26.25
40948;BME280;49382;-25.924;28.194;2023-07-09T06:31:45;85233.46;;;15.90;27.83
40948;BME280;49382;-25.924;28.194;2023-07-09T06:34:11;85232.09;;;17.11;25.71
40948;BME280;49382;-25.924;28.194;2023-07-09T06:36:37;85234.45;;;16.88;25.49
40948;BME280;49382;-25.924;28.194;2023-07-09T06:39:02;85241.02;;;17.00;25.76
40948;BME280;49382;-25.924;28.194;2023-07-09T06:41:27;85237.96;;;17.87;25.12
40948;BME280;49382;-25.924;28.194;2023-07-09T06:43:53;85236.43;;;17.68;24.78
40948;BME280;49382;-25.924;28.194;2023-07-09T06:46:20;85240.94;;;18.47;24.37
40948;BME280;49382;-25.924;28.194;2023-07-09T06:48:44;85235.49;;;20.34;22.11
40948;BME280;49382;-25.924;28.194;2023-07-09T06:51:09;85242.29;;;23.83;18.68
40948;BME280;49382;-25.924;28.194;2023-07-09T06:53:35;85242.78;;;27.37;16.43
40948;BME280;49382;-25.924;28.194;2023-07-09T06:56:00;85249.85;;;29.88;13.96
40948;BME280;49382;-25.924;28.194;2023-07-09T06:58:27;85241.83;;;31.64;12.58
40948;BME280;49382;-25.924;28.194;2023-07-09T07:00:51;85250.52;;;33.60;11.53
40948;BME280;49382;-25.924;28.194;2023-07-09T07:03:16;85246.98;;;35.26;10.06
40948;BME280;49382;-25.924;28.194;2023-07-09T07:05:44;85245.83;;;36.84;9.14
40948;BME280;49382;-25.924;28.194;2023-07-09T07:08:07;85245.96;;;37.55;8.39
40948;BME280;49382;-25.924;28.194;2023-07-09T07:10:32;85245.56;;;37.18;8.02
40948;BME280;49382;-25.924;28.194;2023-07-09T07:12:57;85250.95;;;36.71;8.25
40948;BME280;49382;-25.924;28.194;2023-07-09T07:15:22;85253.07;;;39.18;7.27
40948;BME280;49382;-25.924;28.194;2023-07-09T07:17:48;85255.28;;;40.78;6.62
40948;BME280;49382;-25.924;28.194;2023-07-09T07:20:13;85253.58;;;40.66;6.38
40948;BME280;49382;-25.924;28.194;2023-07-09T07:22:38;85256.36;;;40.91;6.37
40948;BME280;49382;-25.924;28.194;2023-07-09T07:25:02;85255.10;;;40.67;6.62
40948;BME280;49382;-25.924;28.194;2023-07-09T07:27:28;85256.40;;;41.03;6.12
40948;BME280;49382;-25.924;28.194;2023-07-09T07:29:54;85258.58;;;40.11;6.01
40948;BME280;49382;-25.924;28.194;2023-07-09T07:32:19;85259.73;;;42.62;5.28
40948;BME280;49382;-25.924;28.194;2023-07-09T07:34:46;85256.68;;;42.14;5.41
40948;BME280;49382;-25.924;28.194;2023-07-09T07:37:11;85256.39;;;42.41;5.07
40948;BME280;49382;-25.924;28.194;2023-07-09T07:39:37;85257.70;;;41.59;5.36
40948;BME280;49382;-25.924;28.194;2023-07-09T07:42:03;85261.97;;;42.59;5.09
40948;BME280;49382;-25.924;28.194;2023-07-09T07:44:28;85260.25;;;41.15;5.36
40948;BME280;49382;-25.924;28.194;2023-07-09T07:46:54;85271.35;;;43.04;5.01
40948;BME280;49382;-25.924;28.194;2023-07-09T07:49:21;85271.63;;;41.72;5.24
40948;BME280;49382;-25.924;28.194;2023-07-09T07:51:45;85276.17;;;43.73;4.74
40948;BME280;49382;-25.924;28.194;2023-07-09T07:54:11;85272.66;;;43.53;5.06
40948;BME280;49382;-25.924;28.194;2023-07-09T07:56:36;85271.98;;;43.73;4.71
40948;BME280;49382;-25.924;28.194;2023-07-09T07:59:02;85275.24;;;42.77;5.17
40948;BME280;49382;-25.924;28.194;2023-07-09T08:01:28;85277.17;;;43.50;4.76
40948;BME280;49382;-25.924;28.194;2023-07-09T08:03:53;85271.89;;;44.21;4.50
40948;BME280;49382;-25.924;28.194;2023-07-09T08:06:19;85275.23;;;44.45;4.20
40948;BME280;49382;-25.924;28.194;2023-07-09T08:08:45;85276.01;;;43.46;4.46
40948;BME280;49382;-25.924;28.194;2023-07-09T08:11:10;85278.65;;;46.20;3.68
40948;BME280;49382;-25.924;28.194;2023-07-09T08:13:37;85277.31;;;43.51;4.42
40948;BME280;49382;-25.924;28.194;2023-07-09T08:16:02;85272.95;;;44.84;4.06
40948;BME280;49382;-25.924;28.194;2023-07-09T08:18:28;85275.31;;;47.37;3.29
40948;BME280;49382;-25.924;28.194;2023-07-09T08:20:53;85270.05;;;46.12;3.65
40948;BME280;49382;-25.924;28.194;2023-07-09T08:23:19;85268.46;;;47.87;3.42
40948;BME280;49382;-25.924;28.194;2023-07-09T08:25:50;85264.61;;;44.99;3.87
40948;BME280;49382;-25.924;28.194;2023-07-09T08:28:10;85262.06;;;45.76;3.41
40948;BME280;49382;-25.924;28.194;2023-07-09T08:30:36;85265.90;;;48.40;2.88
40948;BME280;49382;-25.924;28.194;2023-07-09T08:33:01;85261.34;;;45.52;3.68
40948;BME280;49382;-25.924;28.194;2023-07-09T08:35:27;85256.44;;;44.92;3.76
40948;BME280;49382;-25.924;28.194;2023-07-09T08:37:52;85256.97;;;45.52;3.64
40948;BME280;49382;-25.924;28.194;2023-07-09T08:40:19;85250.60;;;45.14;3.75
40948;BME280;49382;-25.924;28.194;2023-07-09T08:42:46;85251.13;;;47.67;2.97
40948;BME280;49382;-25.924;28.194;2023-07-09T08:45:20;85249.33;;;46.25;3.43
40948;BME280;49382;-25.924;28.194;2023-07-09T08:47:42;85247.53;;;46.11;3.31
40948;BME280;49382;-25.924;28.194;2023-07-09T08:50:04;85248.47;;;46.94;3.47
40948;BME280;49382;-25.924;28.194;2023-07-09T08:52:30;85252.45;;;48.61;2.92
40948;BME280;49382;-25.924;28.194;2023-07-09T08:54:53;85248.86;;;46.57;3.34
40948;BME280;49382;-25.924;28.194;2023-07-09T08:57:22;85246.89;;;46.47;3.48
40948;BME280;49382;-25.924;28.194;2023-07-09T08:59:44;85245.84;;;46.51;3.63
40948;BME280;49382;-25.924;28.194;2023-07-09T09:02:27;85241.66;;;46.76;3.24
40948;BME280;49382;-25.924;28.194;2023-07-09T09:04:37;85247.46;;;49.15;2.64
40948;BME280;49382;-25.924;28.194;2023-07-09T09:07:05;85238.90;;;46.74;3.21
40948;BME280;49382;-25.924;28.194;2023-07-09T09:09:32;85237.52;;;43.54;4.05
40948;BME280;49382;-25.924;28.194;2023-07-09T09:11:58;85234.05;;;48.10;2.82
40948;BME280;49382;-25.924;28.194;2023-07-09T09:14:25;85228.54;;;44.10;4.07
40948;BME280;49382;-25.924;28.194;2023-07-09T09:16:45;85225.42;;;45.70;3.84
40948;BME280;49382;-25.924;28.194;2023-07-09T09:19:18;85202.92;;;36.74;6.86
40948;BME280;49382;-25.924;28.194;2023-07-09T09:21:36;85197.50;;;33.26;8.24
40948;BME280;49382;-25.924;28.194;2023-07-09T09:24:11;85196.07;;;31.07;9.78
40948;BME280;49382;-25.924;28.194;2023-07-09T09:26:30;85188.83;;;29.33;11.22
40948;BME280;49382;-25.924;28.194;2023-07-09T09:28:52;85190.83;;;27.17;12.84
40948;BME280;49382;-25.924;28.194;2023-07-09T09:31:17;85193.43;;;25.58;14.06
40948;BME280;49382;-25.924;28.194;2023-07-09T09:33:44;85193.03;;;25.14;15.04
40948;BME280;49382;-25.924;28.194;2023-07-09T09:36:16;85189.54;;;25.49;15.53
40948;BME280;49382;-25.924;28.194;2023-07-09T09:38:36;85178.14;;;24.57;16.09
40948;BME280;49382;-25.924;28.194;2023-07-09T09:41:01;85174.17;;;24.95;15.83
40948;BME280;49382;-25.924;28.194;2023-07-09T09:43:31;85171.12;;;24.95;16.03
40948;BME280;49382;-25.924;28.194;2023-07-09T09:45:52;85169.12;;;24.36;16.83
40948;BME280;49382;-25.924;28.194;2023-07-09T09:48:20;85167.74;;;24.40;16.77
40948;BME280;49382;-25.924;28.194;2023-07-09T09:50:42;85165.73;;;24.54;16.42
40948;BME280;49382;-25.924;28.194;2023-07-09T09:53:08;85162.91;;;24.32;16.75
40948;BME280;49382;-25.924;28.194;2023-07-09T09:55:33;85164.30;;;23.92;16.73
40948;BME280;49382;-25.924;28.194;2023-07-09T09:57:58;85159.12;;;23.92;16.96
40948;BME280;49382;-25.924;28.194;2023-07-09T10:00:26;85161.31;;;23.07;17.72
40948;BME280;49382;-25.924;28.194;2023-07-09T10:02:49;85154.37;;;22.93;18.23
40948;BME280;49382;-25.924;28.194;2023-07-09T10:05:15;85148.79;;;22.69;18.32
40948;BME280;49382;-25.924;28.194;2023-07-09T10:07:44;85148.10;;;22.31;18.97
40948;BME280;49382;-25.924;28.194;2023-07-09T10:10:12;85146.26;;;22.76;18.01
40948;BME280;49382;-25.924;28.194;2023-07-09T10:12:38;85140.85;;;23.50;17.91
40948;BME280;49382;-25.924;28.194;2023-07-09T10:15:02;85141.08;;;23.09;18.10
40948;BME280;49382;-25.924;28.194;2023-07-09T10:17:27;85136.97;;;22.70;17.83
40948;BME280;49382;-25.924;28.194;2023-07-09T10:19:53;85134.66;;;22.83;17.44
40948;BME280;49382;-25.924;28.194;2023-07-09T10:22:21;85137.47;;;21.54;18.41
40948;BME280;49382;-25.924;28.194;2023-07-09T10:24:48;85136.97;;;21.59;19.24
40948;BME280;49382;-25.924;28.194;2023-07-09T10:27:10;85126.65;;;22.31;17.53
40948;BME280;49382;-25.924;28.194;2023-07-09T10:29:39;85127.11;;;22.07;17.83
40948;BME280;49382;-25.924;28.194;2023-07-09T10:32:01;85123.63;;;21.27;18.34
40948;BME280;49382;-25.924;28.194;2023-07-09T10:34:34;85117.55;;;22.11;17.97
40948;BME280;49382;-25.924;28.194;2023-07-09T10:39:16;85113.37;;;23.07;18.05
40948;BME280;49382;-25.924;28.194;2023-07-09T10:41:39;85113.20;;;21.83;18.91
40948;BME280;49382;-25.924;28.194;2023-07-09T10:44:11;85115.79;;;21.58;18.45
40948;BME280;49382;-25.924;28.194;2023-07-09T10:46:34;85112.80;;;21.35;18.22
40948;BME280;49382;-25.924;28.194;2023-07-09T10:48:57;85112.55;;;21.19;18.07
40948;BME280;49382;-25.924;28.194;2023-07-09T10:51:26;85112.69;;;21.86;17.88
40948;BME280;49382;-25.924;28.194;2023-07-09T10:53:54;85117.49;;;21.61;18.55
40948;BME280;49382;-25.924;28.194;2023-07-09T10:56:16;85117.27;;;22.12;19.13
40948;BME280;49382;-25.924;28.194;2023-07-09T10:58:43;85111.00;;;21.84;17.95
40948;BME280;49382;-25.924;28.194;2023-07-09T11:01:05;85102.55;;;20.68;18.64
40948;BME280;49382;-25.924;28.194;2023-07-09T11:03:40;85110.14;;;22.20;18.39
40948;BME280;49382;-25.924;28.194;2023-07-09T11:05:57;85107.29;;;21.90;18.64
40948;BME280;49382;-25.924;28.194;2023-07-09T11:08:26;85109.27;;;21.34;19.78
40948;BME280;49382;-25.924;28.194;2023-07-09T11:10:51;85103.28;;;21.70;18.18
40948;BME280;49382;-25.924;28.194;2023-07-09T11:13:15;85098.83;;;21.12;19.03
40948;BME280;49382;-25.924;28.194;2023-07-09T11:15:42;85096.74;;;21.41;18.45
40948;BME280;49382;-25.924;28.194;2023-07-09T11:18:06;85101.31;;;21.01;18.63
40948;BME280;49382;-25.924;28.194;2023-07-09T11:20:34;85098.86;;;21.97;18.11
40948;BME280;49382;-25.924;28.194;2023-07-09T11:23:01;85092.08;;;21.62;19.40
40948;BME280;49382;-25.924;28.194;2023-07-09T11:25:28;85093.37;;;21.99;19.03
40948;BME280;49382;-25.924;28.194;2023-07-09T11:27:49;85087.21;;;21.87;18.09
40948;BME280;49382;-25.924;28.194;2023-07-09T11:30:19;85086.98;;;21.21;18.80
40948;BME280;49382;-25.924;28.194;2023-07-09T11:32:44;85082.00;;;22.33;17.82
40948;BME280;49382;-25.924;28.194;2023-07-09T11:35:08;85081.31;;;22.04;18.49
40948;BME280;49382;-25.924;28.194;2023-07-09T11:37:26;85082.43;;;22.49;17.95
40948;BME280;49382;-25.924;28.194;2023-07-09T11:39:51;85084.58;;;21.51;18.27
40948;BME280;49382;-25.924;28.194;2023-07-09T11:42:26;85079.92;;;21.78;18.32
40948;BME280;49382;-25.924;28.194;2023-07-09T11:44:46;85081.35;;;21.99;18.10
40948;BME280;49382;-25.924;28.194;2023-07-09T11:47:16;85078.87;;;21.25;18.69
40948;BME280;49382;-25.924;28.194;2023-07-09T11:49:41;85076.97;;;21.81;18.34
40948;BME280;49382;-25.924;28.194;2023-07-09T11:52:03;85065.31;;;21.79;18.02
40948;BME280;49382;-25.924;28.194;2023-07-09T11:54:23;85065.58;;;21.84;18.32
40948;BME280;49382;-25.924;28.194;2023-07-09T11:56:54;85063.27;;;22.12;18.40
40948;BME280;49382;-25.924;28.194;2023-07-09T11:59:13;85059.25;;;20.73;18.35
40948;BME280;49382;-25.924;28.194;2023-07-09T12:01:43;85053.61;;;20.34;18.96
40948;BME280;49382;-25.924;28.194;2023-07-09T12:04:04;85054.62;;;19.42;18.92
40948;BME280;49382;-25.924;28.194;2023-07-09T12:06:31;85054.68;;;20.15;18.51
40948;BME280;49382;-25.924;28.194;2023-07-09T12:08:55;85053.19;;;19.99;18.32
40948;BME280;49382;-25.924;28.194;2023-07-09T12:11:22;85051.31;;;19.29;19.00
40948;BME280;49382;-25.924;28.194;2023-07-09T12:13:44;85055.24;;;19.91;18.50
40948;BME280;49382;-25.924;28.194;2023-07-09T12:18:34;85051.69;;;19.29;18.73
40948;BME280;49382;-25.924;28.194;2023-07-09T12:20:59;85050.35;;;19.40;18.14
40948;BME280;49382;-25.924;28.194;2023-07-09T12:23:28;85049.87;;;19.68;18.14
40948;BME280;49382;-25.924;28.194;2023-07-09T12:25:51;85051.56;;;20.03;17.99
40948;BME280;49382;-25.924;28.194;2023-07-09T12:28:15;85050.01;;;20.69;17.59
40948;BME280;49382;-25.924;28.194;2023-07-09T12:30:39;85054.07;;;20.33;17.41
40948;BME280;49382;-25.924;28.194;2023-07-09T12:33:07;85052.23;;;19.21;18.59
40948;BME280;49382;-25.924;28.194;2023-07-09T12:35:29;85050.32;;;18.74;18.94
40948;BME280;49382;-25.924;28.194;2023-07-09T12:37:54;85051.63;;;18.61;18.53